Time;durP1;ratioP1;P1;durP2;ratioP2;P2;SDS_P1;SDS_P2;PMS_P1;PMS_P2;Temp;Humidity;BMP_temperature;BMP_pressure;BME280_temperature;BME280_humidity;BME280_pressure;Samples;Min_cycle;Max_cycle;Signal;HPM_P1;HPM_P2
2022/12/06 00:02:11;;;;;;;21.57;20.07;;;;;;;11.14;74.20;99873.63;5054938;28;20044;-68
2022/12/06 00:04:38;;;;;;;22.80;21.20;;;;;;;10.98;74.03;99875.81;5073256;28;20518;-68
2022/12/06 00:07:05;;;;;;;22.23;20.67;;;;;;;11.04;74.08;99896.97;5074693;28;20087;-68
2022/12/06 00:09:32;;;;;;;23.17;21.37;;;;;;;10.98;74.25;99892.56;5056398;28;20407;-67
2022/12/06 00:11:59;;;;;;;21.73;19.93;;;;;;;10.98;74.29;99902.91;5057149;28;20048;-67
2022/12/06 00:14:26;;;;;;;22.57;20.73;;;;;;;11.00;74.49;99904.25;5056397;28;20127;-69
2022/12/06 00:16:53;;;;;;;22.83;21.07;;;;;;;10.98;74.40;99891.75;5074396;28;20041;-66
2022/12/06 00:19:22;;;;;;;22.70;21.03;;;;;;;11.01;74.33;99897.56;5076119;28;20127;-68
2022/12/06 00:21:49;;;;;;;22.27;20.47;;;;;;;10.97;74.45;99893.69;5078885;28;20547;-71
2022/12/06 00:24:20;;;;;;;21.60;20.13;;;;;;;11.07;74.64;99901.09;5077817;28;20257;-72
2022/12/06 00:26:48;;;;;;;22.30;20.50;;;;;;;11.01;74.76;99885.53;5079821;28;20051;-69
2022/12/06 00:29:20;;;;;;;18.67;17.50;;;;;;;11.16;74.72;99899.31;5079939;28;20057;-71
2022/12/06 00:31:48;;;;;;;20.57;19.17;;;;;;;11.26;74.89;99892.75;5059430;28;20052;-73
2022/12/06 00:34:15;;;;;;;20.10;18.73;;;;;;;11.30;74.72;99905.81;5079372;28;20052;-71
2022/12/06 00:36:42;;;;;;;42.27;39.90;;;;;;;11.34;74.55;99906.03;5079626;28;20044;-71
2022/12/06 00:39:15;;;;;;;19.97;18.77;;;;;;;11.22;74.59;99881.34;5077990;28;20056;-72
2022/12/06 00:41:44;;;;;;;34.63;32.87;;;;;;;11.37;74.85;99897.88;5077039;28;20052;-72
2022/12/06 00:44:11;;;;;;;32.70;31.07;;;;;;;11.36;74.81;99895.41;5078376;28;20040;-71
2022/12/06 00:46:38;;;;;;;19.07;18.00;;;;;;;11.38;74.98;99895.91;5062471;28;20056;-71
2022/12/06 00:49:06;;;;;;;18.50;17.43;;;;;;;11.43;74.96;99897.81;5059276;28;20569;-72
2022/12/06 00:51:35;;;;;;;19.07;17.97;;;;;;;11.44;74.85;99893.88;5076105;28;20044;-71
2022/12/06 00:54:03;;;;;;;18.10;17.10;;;;;;;11.49;74.98;99903.03;5081264;28;20060;-70
2022/12/06 00:56:30;;;;;;;17.50;16.60;;;;;;;11.57;74.81;99898.72;5079728;28;20051;-70
2022/12/06 00:58:58;;;;;;;20.50;18.80;;;;;;;11.69;74.57;99906.63;5079869;28;20056;-71
2022/12/06 01:01:27;;;;;;;19.47;18.27;;;;;;;11.70;74.37;99905.53;5061882;28;20071;-71
2022/12/06 01:04:01;;;;;;;18.77;17.58;;;;;;;11.72;74.30;99909.66;5078699;28;20049;-71
2022/12/06 01:06:31;;;;;;;17.37;16.37;;;;;;;11.73;74.23;99913.31;5070551;28;20045;-71
2022/12/06 01:09:01;;;;;;;20.02;18.63;;;;;;;11.79;74.38;99914.88;5058033;28;20049;-70
2022/12/06 01:11:29;;;;;;;19.33;18.07;;;;;;;11.79;74.33;99907.28;5073415;28;20091;-70
2022/12/06 01:13:56;;;;;;;27.83;26.03;;;;;;;11.84;74.27;99909.25;5075818;28;20495;-71
2022/12/06 01:16:27;;;;;;;19.63;18.17;;;;;;;11.79;74.31;99912.06;5056265;28;20068;-70
2022/12/06 01:19:00;;;;;;;17.90;16.77;;;;;;;11.72;74.15;99897.63;5071234;28;20127;-71
2022/12/06 01:21:27;;;;;;;19.13;18.03;;;;;;;11.81;74.43;99909.81;5070601;28;20483;-71
2022/12/06 01:23:54;;;;;;;18.50;17.40;;;;;;;11.85;74.33;99916.47;5060659;28;20049;-71
2022/12/06 01:26:24;;;;;;;18.90;17.63;;;;;;;11.94;74.18;99923.06;5054783;28;20045;-70
2022/12/06 01:28:51;;;;;;;19.27;18.13;;;;;;;11.96;74.37;99925.53;5054676;28;20064;-71
2022/12/06 01:31:18;;;;;;;32.40;30.80;;;;;;;12.01;74.05;99931.06;5068485;28;20518;-71
2022/12/06 01:33:45;;;;;;;17.80;16.70;;;;;;;11.99;74.15;99928.56;5074897;28;20044;-70
2022/12/06 01:36:21;;;;;;;17.53;16.43;;;;;;;11.88;73.81;99920.66;5074752;28;20496;-71
2022/12/06 01:38:55;;;;;;;17.57;16.57;;;;;;;11.78;73.95;99919.63;5074230;28;20052;-71
2022/12/06 01:41:25;;;;;;;18.10;17.10;;;;;;;11.87;73.98;99928.22;5070761;28;20052;-71
2022/12/06 01:43:52;;;;;;;18.60;17.40;;;;;;;11.90;73.91;99923.94;5056526;28;20048;-70
2022/12/06 01:46:37;;;;;;;18.43;17.40;;;;;;;11.84;73.83;99931.63;5073787;28;20051;-70
2022/12/06 01:49:10;;;;;;;18.37;17.23;;;;;;;11.81;73.97;99926.59;5056987;28;20136;-70
2022/12/06 01:51:39;;;;;;;18.23;17.13;;;;;;;11.74;73.81;99920.56;5073691;28;20045;-68
2022/12/06 01:54:10;;;;;;;19.42;18.02;;;;;;;11.77;73.93;99928.34;5056498;28;20048;-69
2022/12/06 01:56:39;;;;;;;17.20;16.20;;;;;;;11.80;73.93;99933.34;5073643;28;20052;-68
2022/12/06 01:59:07;;;;;;;17.77;16.70;;;;;;;11.83;73.95;99941.13;5074312;28;20067;-68
2022/12/06 02:01:34;;;;;;;18.77;17.53;;;;;;;11.77;73.95;99942.34;5072674;28;20044;-68
2022/12/06 02:04:01;;;;;;;22.17;20.27;;;;;;;11.83;73.87;99946.72;5072492;28;20049;-69
2022/12/06 02:06:30;;;;;;;17.77;16.77;;;;;;;11.86;73.85;99946.13;5072493;28;20515;-68
2022/12/06 02:08:59;;;;;;;16.87;15.87;;;;;;;11.87;73.65;99947.81;5071201;28;20049;-67
2022/12/06 02:11:26;;;;;;;18.63;17.47;;;;;;;11.77;73.64;99940.34;5071988;28;20067;-68
2022/12/06 02:14:03;;;;;;;17.83;16.70;;;;;;;11.87;73.74;99949.78;5071572;28;20114;-68
2022/12/06 02:16:30;;;;;;;18.13;17.13;;;;;;;11.87;73.96;99956.19;5072570;28;20045;-77
2022/12/06 02:19:12;;;;;;;18.53;17.47;;;;;;;11.87;73.62;99952.56;5072814;28;20056;-74
2022/12/06 02:21:56;;;;;;;17.10;16.00;;;;;;;11.81;73.70;99954.56;5072572;28;20053;-79
2022/12/06 02:24:43;;;;;;;18.60;17.60;;;;;;;11.84;73.73;99967.97;5072616;28;20045;-65
2022/12/06 02:27:19;;;;;;;19.57;18.37;;;;;;;11.92;73.85;99980.44;5071536;28;20051;-65
2022/12/06 02:30:07;;;;;;;18.00;17.00;;;;;;;11.87;73.72;99975.78;5054303;28;20053;-65
2022/12/06 02:32:51;;;;;;;18.03;17.03;;;;;;;11.88;73.77;99980.22;5070472;28;20552;-69
2022/12/06 02:35:23;;;;;;;18.20;17.17;;;;;;;11.90;73.65;99975.16;5072665;28;20045;-71
2022/12/06 02:37:58;;;;;;;18.90;17.80;;;;;;;11.85;73.70;99972.44;5052830;28;20053;-71
2022/12/06 02:40:41;;;;;;;19.47;18.37;;;;;;;11.84;73.68;99987.56;5072288;28;20048;-66
2022/12/06 02:43:14;;;;;;;17.47;16.47;;;;;;;11.77;73.76;99971.13;5071183;28;20056;-65
2022/12/06 02:45:48;;;;;;;17.90;16.80;;;;;;;11.93;73.73;99991.34;5070802;28;20044;-74
2022/12/06 02:48:18;;;;;;;17.87;16.77;;;;;;;11.97;73.57;99985.97;5067865;28;20045;-64
2022/12/06 02:50:52;;;;;;;19.87;18.57;;;;;;;12.01;73.49;100004.66;5062698;28;20078;-64
2022/12/06 02:53:22;;;;;;;20.10;18.60;;;;;;;12.02;73.61;99999.88;5072110;28;20051;-64
2022/12/06 02:55:50;;;;;;;19.93;18.57;;;;;;;12.01;73.49;99998.22;5052184;28;20053;-64
2022/12/06 02:58:17;;;;;;;20.20;18.80;;;;;;;12.01;73.58;99999.06;5071770;28;20083;-69
2022/12/06 03:00:49;;;;;;;20.23;18.67;;;;;;;12.05;73.61;99994.50;5067633;28;20051;-77
2022/12/06 03:03:48;;;;;;;21.17;19.50;;;;;;;11.99;73.65;99997.69;5071304;28;20048;-68
2022/12/06 03:06:39;;;;;;;18.63;17.53;;;;;;;12.02;73.35;100003.50;5064880;28;20059;-68
2022/12/06 03:09:28;;;;;;;19.43;18.23;;;;;;;12.02;73.58;100000.69;5067599;28;20048;-69
2022/12/06 03:12:07;;;;;;;18.97;17.77;;;;;;;12.01;73.65;100003.81;5072030;28;20045;-69
2022/12/06 03:14:45;;;;;;;19.37;18.27;;;;;;;11.97;73.72;100002.78;5072385;28;20392;-68
2022/12/06 03:17:42;;;;;;;20.07;18.87;;;;;;;11.91;73.62;100013.19;5070549;28;20529;-67
2022/12/06 03:20:41;;;;;;;22.60;21.33;;;;;;;11.76;73.76;100010.56;5070858;28;20049;-67
2022/12/06 03:23:16;;;;;;;18.80;17.63;;;;;;;11.71;73.94;100014.28;5034608;28;20086;-68
2022/12/06 03:25:45;;;;;;;18.83;17.63;;;;;;;11.71;73.95;100007.88;5071209;28;20127;-68
2022/12/06 03:28:15;;;;;;;19.40;18.10;;;;;;;11.61;74.01;100011.63;5071178;28;20430;-68
2022/12/06 03:30:48;;;;;;;18.30;17.20;;;;;;;11.61;74.15;100015.25;5072230;28;20045;-69
2022/12/06 03:33:17;;;;;;;19.13;17.93;;;;;;;11.58;74.17;100004.66;5071359;28;20139;-69
2022/12/06 03:35:45;;;;;;;18.23;17.13;;;;;;;11.62;73.96;100016.94;5071842;28;20045;-67
2022/12/06 03:38:36;;;;;;;18.50;17.40;;;;;;;11.57;74.04;100005.81;5070341;28;20068;-69
2022/12/06 03:41:04;;;;;;;;;;;;;;;11.28;74.99;100007.88;5070730;28;20128;-69
2022/12/06 03:43:32;;;;;;;18.60;17.30;;;;;;;11.44;74.53;100006.53;5072048;28;19921;-69
2022/12/06 03:46:16;;;;;;;20.77;19.43;;;;;;;11.41;74.59;100017.50;5071978;28;20056;-69
2022/12/06 03:48:52;;;;;;;18.67;17.47;;;;;;;11.45;74.48;100012.97;5071089;28;20040;-68
2022/12/06 03:51:24;;;;;;;18.83;17.63;;;;;;;11.40;74.52;99997.09;5071734;28;20044;-67
2022/12/06 03:53:55;;;;;;;18.80;17.60;;;;;;;11.45;74.65;100008.19;5053486;28;20048;-68
2022/12/06 03:56:22;;;;;;;18.15;17.15;;;;;;;11.43;74.70;100013.28;5070545;28;20053;-68
2022/12/06 03:58:49;;;;;;;18.53;17.47;;;;;;;11.42;74.70;100014.41;5069899;28;20051;-67
2022/12/06 04:01:16;;;;;;;19.77;18.57;;;;;;;11.45;74.65;100011.00;5072091;28;20052;-67
2022/12/06 04:03:43;;;;;;;18.70;17.60;;;;;;;11.47;74.81;100013.50;5071225;28;20491;-67
2022/12/06 04:06:11;;;;;;;19.73;18.53;;;;;;;11.47;74.65;100005.94;5072116;28;20055;-68
2022/12/06 04:08:38;;;;;;;19.27;18.07;;;;;;;11.52;74.71;100013.44;5070233;28;20080;-68
2022/12/06 04:11:05;;;;;;;18.43;17.40;;;;;;;11.48;74.74;100009.56;5071640;28;20507;-68
2022/12/06 04:13:32;;;;;;;18.40;17.30;;;;;;;11.38;74.78;99997.41;5070460;28;20054;-68
2022/12/06 04:16:00;;;;;;;19.03;17.83;;;;;;;11.39;75.01;100010.25;5071548;28;20056;-68
2022/12/06 04:18:27;;;;;;;19.83;18.70;;;;;;;11.39;75.09;100015.00;5066472;28;20086;-71
2022/12/06 04:23:48;;;;;;;18.27;17.27;;;;;;;11.34;75.20;100013.09;5092188;28;20422;-71
2022/12/06 04:26:18;;;;;;;18.67;17.55;;;;;;;11.44;74.96;100011.31;5090143;28;20628;-70
2022/12/06 04:39:47;;;;;;;19.80;18.53;;;;;;;11.42;74.99;100014.41;5089463;28;20048;-68
2022/12/06 04:44:59;;;;;;;18.77;17.63;;;;;;;11.36;75.34;100021.19;5095111;28;20048;-68
2022/12/06 04:47:26;;;;;;;20.20;19.00;;;;;;;11.30;75.48;100020.41;5093019;28;20040;-70
2022/12/06 04:49:54;;;;;;;19.20;18.00;;;;;;;11.17;75.46;100011.94;5094720;28;20076;-72
2022/12/06 04:52:20;;;;;;;19.27;18.27;;;;;;;11.29;75.54;100034.72;5095509;28;20048;-71
2022/12/06 04:54:47;;;;;;;18.47;17.43;;;;;;;11.25;75.56;100031.69;5095213;28;20056;-70
2022/12/06 04:57:15;;;;;;;18.50;17.40;;;;;;;11.32;75.49;100031.31;5095076;28;20139;-68
2022/12/06 04:59:45;;;;;;;18.73;17.63;;;;;;;11.30;75.65;100044.75;5095154;28;20048;-70
2022/12/06 05:02:13;;;;;;;18.75;17.67;;;;;;;11.25;75.82;100042.88;5094640;28;20135;-70
2022/12/06 05:04:40;;;;;;;19.23;18.03;;;;;;;11.28;75.83;100052.59;5094543;28;20048;-70
2022/12/06 05:07:07;;;;;;;18.33;17.33;;;;;;;11.26;75.92;100055.69;5094850;28;20054;-70
2022/12/06 05:09:34;;;;;;;17.90;16.90;;;;;;;11.30;75.88;100061.53;5095247;28;20071;-70
2022/12/06 05:12:01;;;;;;;18.50;17.30;;;;;;;11.33;75.91;100056.16;5094337;28;20044;-69
2022/12/06 05:14:28;;;;;;;19.00;18.00;;;;;;;11.41;75.51;100057.47;5093787;28;20063;-70
2022/12/06 05:16:54;;;;;;;20.47;19.10;;;;;;;11.54;75.31;100055.91;5094768;28;20052;-71
2022/12/06 05:19:21;;;;;;;18.33;17.30;;;;;;;11.58;75.39;100052.22;5085422;28;20052;-71
2022/12/06 05:21:48;;;;;;;23.33;22.13;;;;;;;11.61;75.25;100050.78;5094161;28;20059;-71
2022/12/06 05:24:15;;;;;;;19.33;18.23;;;;;;;11.71;75.30;100056.25;5092553;28;20059;-73
2022/12/06 05:26:41;;;;;;;19.00;17.97;;;;;;;11.72;75.51;100062.66;5093539;28;20052;-73
2022/12/06 05:29:08;;;;;;;18.63;17.63;;;;;;;11.63;75.26;100060.56;5093294;28;20044;-72
2022/12/06 05:31:35;;;;;;;19.63;18.53;;;;;;;11.58;75.16;100052.22;5092561;28;20071;-70
2022/12/06 05:34:02;;;;;;;18.47;17.30;;;;;;;11.56;75.09;100050.88;5093280;28;20116;-70
2022/12/06 05:36:29;;;;;;;18.53;17.53;;;;;;;11.56;75.22;100059.25;5093547;28;20051;-70
2022/12/06 05:38:56;;;;;;;24.33;23.03;;;;;;;11.54;75.73;100056.75;5094164;28;20051;-70
2022/12/06 05:41:23;;;;;;;18.20;17.20;;;;;;;11.54;75.50;100062.34;5091265;28;20059;-70
2022/12/06 05:43:50;;;;;;;19.63;18.53;;;;;;;11.51;75.42;100059.31;5093127;28;20052;-70
2022/12/06 05:46:17;;;;;;;20.37;19.17;;;;;;;11.52;75.66;100061.81;5092494;28;20052;-70
2022/12/06 05:48:44;;;;;;;18.67;17.67;;;;;;;11.52;75.47;100064.63;5093414;28;20045;-69
2022/12/06 05:51:11;;;;;;;18.63;17.53;;;;;;;11.54;75.40;100067.94;5093163;28;20044;-69
2022/12/06 05:53:40;;;;;;;18.80;17.80;;;;;;;11.49;75.38;100053.19;5094062;28;20052;-69
2022/12/06 05:56:10;;;;;;;20.00;18.90;;;;;;;11.55;75.48;100068.75;5093205;28;20410;-69
2022/12/06 05:58:38;;;;;;;19.70;18.60;;;;;;;11.53;75.68;100073.84;5092822;28;20036;-70
2022/12/06 06:01:06;;;;;;;18.17;17.17;;;;;;;11.41;75.64;100063.06;5090492;28;20048;-69
2022/12/06 06:03:34;;;;;;;19.40;18.27;;;;;;;11.41;75.78;100070.63;5077772;28;20062;-69
2022/12/06 06:06:01;;;;;;;19.37;18.27;;;;;;;11.35;75.97;100081.88;5093243;28;20058;-69
2022/12/06 06:08:29;;;;;;;20.33;19.10;;;;;;;11.31;76.14;100071.56;5092936;28;20126;-69
2022/12/06 06:10:56;;;;;;;20.53;19.40;;;;;;;11.26;76.33;100072.47;5089375;28;20059;-71
2022/12/06 06:13:24;;;;;;;19.53;18.43;;;;;;;11.20;76.50;100061.63;5090996;28;20412;-71
2022/12/06 06:15:51;;;;;;;19.70;18.47;;;;;;;11.25;76.24;100072.78;5091592;28;20051;-71
2022/12/06 06:18:18;;;;;;;19.93;18.73;;;;;;;11.26;76.53;100074.44;5081059;28;20422;-71
2022/12/06 06:20:53;;;;;;;19.20;17.90;;;;;;;11.23;76.56;100077.81;5072719;28;20048;-71
2022/12/06 06:23:21;;;;;;;19.33;18.23;;;;;;;11.30;76.52;100083.88;5071631;28;20045;-70
2022/12/06 06:25:48;;;;;;;20.17;18.87;;;;;;;11.34;76.22;100084.94;5072048;28;20059;-69
2022/12/06 06:28:15;;;;;;;19.43;18.00;;;;;;;11.33;76.17;100074.91;5068166;28;20052;-70
2022/12/06 06:30:43;;;;;;;19.57;18.47;;;;;;;11.44;76.08;100090.44;5071532;28;20515;-69
2022/12/06 06:33:11;;;;;;;19.83;18.63;;;;;;;11.46;76.01;100087.34;5071595;28;20049;-68
2022/12/06 06:35:38;;;;;;;19.90;18.43;;;;;;;11.51;76.01;100092.88;5071908;28;20049;-68
2022/12/06 06:38:05;;;;;;;20.83;19.47;;;;;;;11.52;76.01;100100.97;5067457;28;20384;-69
2022/12/06 06:40:32;;;;;;;19.17;18.07;;;;;;;11.49;75.81;100104.34;5071949;28;20044;-69
2022/12/06 06:43:16;;;;;;;18.33;17.33;;;;;;;11.53;76.02;100115.78;5071381;28;20063;-69
2022/12/06 06:45:55;;;;;;;20.17;18.87;;;;;;;11.41;76.14;100091.00;5056367;28;20087;-68
2022/12/06 06:48:23;;;;;;;19.37;18.33;;;;;;;11.36;76.32;100096.69;5071503;28;20045;-69
2022/12/06 06:50:50;;;;;;;18.87;17.87;;;;;;;11.36;76.42;100113.47;5072483;28;20059;-69
2022/12/06 06:53:25;;;;;;;31.83;30.17;;;;;;;11.33;76.28;100114.03;5071430;28;20047;-68
2022/12/06 06:55:53;;;;;;;20.20;18.93;;;;;;;11.28;76.39;100117.75;5073000;28;20087;-68
2022/12/06 06:58:19;;;;;;;20.40;19.20;;;;;;;11.31;76.37;100133.88;5071702;28;20055;-68
2022/12/06 07:00:54;;;;;;;20.87;19.47;;;;;;;11.33;76.89;100133.63;5071118;28;20040;-68
2022/12/06 07:03:22;;;;;;;21.40;19.97;;;;;;;11.25;76.45;100125.88;5046306;28;20127;-70
2022/12/06 07:05:52;;;;;;;30.07;28.43;;;;;;;11.32;76.58;100135.59;5068368;28;20059;-72
2022/12/06 07:08:19;;;;;;;33.63;31.90;;;;;;;11.26;76.97;100133.13;5070006;28;20055;-71
2022/12/06 07:10:47;;;;;;;20.80;19.60;;;;;;;11.28;77.00;100130.84;5068298;28;20523;-67
2022/12/06 07:13:15;;;;;;;20.00;18.67;;;;;;;11.27;77.09;100138.41;5064417;28;20405;-65
2022/12/06 07:15:42;;;;;;;19.97;18.87;;;;;;;11.23;77.27;100128.97;5066561;28;20056;-66
2022/12/06 07:18:09;;;;;;;20.00;18.90;;;;;;;11.24;77.49;100140.97;5068678;28;20060;-67
2022/12/06 07:20:36;;;;;;;20.43;18.90;;;;;;;11.19;77.44;100138.25;5050337;28;20526;-66
2022/12/06 07:23:05;;;;;;;21.00;19.73;;;;;;;11.15;77.61;100138.81;5058194;28;20512;-65
2022/12/06 07:25:32;;;;;;;19.83;18.73;;;;;;;11.09;77.64;100134.41;5070686;28;20048;-66
2022/12/06 07:28:02;;;;;;;21.17;19.87;;;;;;;11.19;77.53;100139.06;5069959;28;20056;-66
2022/12/06 07:30:35;;;;;;;21.47;20.17;;;;;;;11.24;77.52;100144.59;5071738;28;20052;-67
2022/12/06 07:33:02;;;;;;;20.70;19.50;;;;;;;11.30;77.53;100153.78;5070951;28;20127;-66
2022/12/06 07:35:29;;;;;;;20.90;19.70;;;;;;;11.32;77.69;100154.31;5070799;28;20063;-66
2022/12/06 07:38:25;;;;;;;21.40;20.10;;;;;;;11.27;77.61;100151.56;5055922;28;20458;-66
2022/12/06 07:44:59;;;;;;;32.90;31.10;;;;;;;11.30;77.67;100156.56;5063837;28;20052;-67
2022/12/06 07:46:48;;;;;;;20.60;19.37;;;;;;;11.20;78.06;100165.06;5062074;28;20044;-67
2022/12/06 07:49:18;;;;;;;20.83;19.50;;;;;;;11.16;78.03;100156.41;5066426;28;20072;-66
2022/12/06 07:51:45;;;;;;;30.73;29.23;;;;;;;11.24;78.19;100164.16;5066401;28;20048;-66
2022/12/06 07:54:14;;;;;;;22.53;21.03;;;;;;;11.24;78.03;100168.91;5065376;28;20063;-70
2022/12/06 07:56:41;;;;;;;21.40;20.07;;;;;;;11.20;78.17;100162.25;5050414;28;20045;-69
2022/12/06 07:59:10;;;;;;;21.87;20.63;;;;;;;11.25;78.31;100176.19;5070190;28;20053;-69
2022/12/06 08:01:37;;;;;;;22.47;21.27;;;;;;;11.18;78.38;100170.09;5060907;28;20059;-66
2022/12/06 08:04:05;;;;;;;21.67;20.40;;;;;;;11.18;78.60;100172.88;5042891;28;20052;-66
2022/12/06 08:06:32;;;;;;;21.33;20.13;;;;;;;11.12;78.74;100166.53;5066607;28;20052;-67
2022/12/06 08:08:59;;;;;;;23.70;22.30;;;;;;;11.05;78.86;100161.28;5053457;28;20056;-63
2022/12/06 08:11:27;;;;;;;23.87;22.47;;;;;;;11.18;78.83;100178.47;5070297;28;20053;-67
2022/12/06 08:13:54;;;;;;;22.20;21.00;;;;;;;11.18;78.91;100182.13;5071117;28;20052;-67
2022/12/06 08:16:21;;;;;;;21.33;20.13;;;;;;;11.11;78.95;100171.28;5066551;28;20491;-67
2022/12/06 08:18:48;;;;;;;20.60;19.50;;;;;;;11.11;78.65;100184.41;5079282;28;20059;-67
2022/12/06 08:21:15;;;;;;;21.17;20.00;;;;;;;11.09;78.99;100181.09;5076922;28;20045;-66
2022/12/06 08:23:42;;;;;;;29.07;27.53;;;;;;;11.17;79.04;100185.19;5091086;28;20048;-67
2022/12/06 08:26:13;;;;;;;19.23;18.13;;;;;;;11.16;78.81;100189.97;5094164;28;20083;-67
2022/12/06 08:28:42;;;;;;;22.17;20.73;;;;;;;11.23;78.89;100196.03;5091419;28;20052;-68
2022/12/06 08:31:14;;;;;;;21.63;20.23;;;;;;;11.27;78.90;100201.88;5086903;28;20044;-66
2022/12/06 08:33:42;;;;;;;21.63;20.23;;;;;;;11.30;78.71;100202.13;5083616;28;20044;-67
2022/12/06 08:36:11;;;;;;;21.33;20.03;;;;;;;11.33;78.59;100197.91;5077260;28;20048;-67
2022/12/06 08:38:38;;;;;;;21.70;20.40;;;;;;;11.39;78.67;100210.72;5089643;28;20050;-66
2022/12/06 08:43:55;;;;;;;21.97;20.67;;;;;;;11.53;78.33;100220.06;5049623;28;20048;-65
2022/12/06 08:46:23;;;;;;;28.63;27.00;;;;;;;11.56;78.13;100205.50;5088929;28;20406;-67
2022/12/06 08:48:51;;;;;;;21.93;20.57;;;;;;;11.59;78.11;100213.31;5090531;28;20047;-66
2022/12/06 08:51:17;;;;;;;21.80;20.50;;;;;;;11.78;78.13;100229.31;5086000;28;20049;-67
2022/12/06 08:53:45;;;;;;;31.13;29.13;;;;;;;11.84;77.86;100216.97;5085423;28;20047;-66
2022/12/06 08:56:12;;;;;;;22.00;20.80;;;;;;;11.84;77.58;100223.41;5088334;28;20059;-66
2022/12/06 08:58:38;;;;;;;24.17;22.57;;;;;;;11.92;77.65;100241.50;5080545;28;20494;-66
2022/12/06 09:01:15;;;;;;;22.50;21.10;;;;;;;11.96;77.35;100236.16;5085482;28;20514;-67
2022/12/06 09:03:42;;;;;;;21.67;20.27;;;;;;;12.06;77.32;100252.81;5087373;28;20113;-66
2022/12/06 09:06:10;;;;;;;23.43;21.77;;;;;;;12.12;77.24;100248.00;5086348;28;20052;-66
2022/12/06 09:08:37;;;;;;;21.50;20.00;;;;;;;12.18;77.17;100258.00;5094332;28;20055;-66
2022/12/06 09:11:04;;;;;;;22.17;20.60;;;;;;;12.25;76.92;100269.69;5095790;28;20054;-67
2022/12/06 09:13:33;;;;;;;22.43;20.93;;;;;;;12.30;76.88;100270.44;5085536;28;20414;-67
2022/12/06 09:16:05;;;;;;;21.27;19.90;;;;;;;12.37;76.51;100267.28;5091211;28;20491;-67
2022/12/06 09:18:32;;;;;;;36.73;34.73;;;;;;;12.43;76.44;100277.28;5069575;28;20135;-67
2022/12/06 09:21:04;;;;;;;22.17;20.77;;;;;;;12.54;76.41;100278.81;5047735;28;20053;-67
2022/12/06 09:23:31;;;;;;;26.13;24.53;;;;;;;12.57;76.32;100281.00;5062110;28;20055;-67
2022/12/06 09:25:58;;;;;;;30.30;28.50;;;;;;;12.61;75.98;100291.63;5059255;28;20044;-67
2022/12/06 09:28:24;;;;;;;23.37;21.77;;;;;;;12.53;76.02;100282.75;5057842;28;20491;-67
2022/12/06 09:30:51;;;;;;;22.17;20.60;;;;;;;12.51;75.80;100293.44;5059208;28;20045;-67
2022/12/06 09:33:18;;;;;;;23.77;22.10;;;;;;;12.47;75.81;100280.31;5044386;28;20168;-67
2022/12/06 09:35:45;;;;;;;26.87;24.97;;;;;;;12.49;75.96;100286.47;5064030;28;21641;-66
2022/12/06 09:38:12;;;;;;;23.03;21.60;;;;;;;12.34;75.94;100276.25;5060879;28;20423;-67
2022/12/06 09:40:51;;;;;;;22.13;20.63;;;;;;;12.35;75.82;100291.13;5059487;28;20175;-67
2022/12/06 09:43:18;;;;;;;20.60;19.50;;;;;;;12.36;76.09;100307.63;5059693;28;20071;-67
2022/12/06 09:45:55;;;;;;;21.60;20.30;;;;;;;12.24;76.00;100287.59;5061586;28;20056;-73
2022/12/06 09:48:39;;;;;;;41.10;38.53;;;;;;;12.29;76.22;100302.38;5056119;28;20071;-66
2022/12/06 09:51:23;;;;;;;26.97;25.00;;;;;;;12.39;76.20;100307.03;5054884;28;20414;-66
2022/12/06 09:54:21;;;;;;;25.60;24.00;;;;;;;12.34;76.20;100298.66;5046916;28;20057;-66
2022/12/06 09:57:06;;;;;;;26.20;24.50;;;;;;;12.37;76.24;100292.47;5037949;28;20052;-66
2022/12/06 09:59:56;;;;;;;24.77;23.07;;;;;;;12.51;76.12;100310.25;5066097;28;20375;-66
2022/12/06 10:02:29;;;;;;;34.03;32.08;;;;;;;12.59;76.07;100317.13;5045546;28;20052;-70
2022/12/06 10:05:37;;;;;;;25.03;23.20;;;;;;;12.69;75.91;100319.81;5055890;28;20408;-67
2022/12/06 10:08:26;;;;;;;23.03;21.60;;;;;;;12.83;75.50;100321.88;5032072;28;20045;-68
2022/12/06 10:11:29;;;;;;;39.53;37.40;;;;;;;12.88;75.49;100319.81;5064034;28;20049;-68
2022/12/06 10:14:11;;;;;;;23.40;21.50;;;;;;;13.03;75.39;100324.38;5061791;28;20049;-68
2022/12/06 10:16:56;;;;;;;23.57;21.93;;;;;;;13.21;75.27;100331.13;5059797;28;20056;-67
2022/12/06 10:19:54;;;;;;;25.92;23.58;;;;;;;13.32;74.92;100327.03;5075691;28;20072;-68
2022/12/06 10:22:43;;;;;;;25.25;22.80;;;;;;;13.58;74.71;100333.09;5093265;28;20112;-67
2022/12/06 10:25:23;;;;;;;24.85;22.88;;;;;;;13.79;73.96;100333.56;5085183;28;20044;-67
2022/12/06 10:28:36;;;;;;;25.90;23.80;;;;;;;14.08;74.36;100340.91;5087317;28;20060;-66
2022/12/06 10:31:39;;;;;;;25.55;23.55;;;;;;;14.34;73.74;100339.28;5091909;28;20048;-67
2022/12/06 10:34:35;;;;;;;25.35;23.05;;;;;;;14.45;72.18;100349.16;5018869;28;20529;-66
2022/12/06 10:37:16;;;;;;;34.80;32.67;;;;;;;14.39;72.10;100344.81;5082661;28;20048;-67
2022/12/06 10:39:58;;;;;;;27.45;25.83;;;;;;;14.37;71.76;100338.66;5085251;28;20110;-67
2022/12/06 10:42:32;;;;;;;23.52;21.75;;;;;;;14.50;71.70;100347.41;5085192;28;20048;-68
2022/12/06 10:48:01;;;;;;;;;;;;;;;14.79;72.04;100339.50;5078072;28;20066;-67
2022/12/06 10:50:32;;;;;;;24.90;22.83;;;;;;;15.10;70.65;100333.19;5080642;28;19920;-66
2022/12/06 10:53:09;;;;;;;21.17;19.73;;;;;;;15.14;70.46;100334.22;5083459;28;20054;-68
2022/12/06 10:55:57;;;;;;;24.15;22.30;;;;;;;15.30;70.71;100340.34;5095180;28;20056;-67
2022/12/06 10:58:29;;;;;;;23.65;21.75;;;;;;;15.46;70.31;100335.19;5085211;28;20059;-66
2022/12/06 11:01:00;;;;;;;23.65;21.80;;;;;;;15.65;69.96;100324.56;5079829;28;20404;-67
2022/12/06 11:03:42;;;;;;;25.60;23.60;;;;;;;15.86;70.18;100336.16;5081898;28;20052;-67
2022/12/06 11:06:42;;;;;;;23.70;22.00;;;;;;;15.96;68.85;100332.25;5086105;28;20047;-67
2022/12/06 11:09:12;;;;;;;23.40;21.65;;;;;;;16.02;68.84;100330.97;5080799;28;20044;-66
2022/12/06 11:11:40;;;;;;;24.67;22.80;;;;;;;16.25;68.94;100323.31;5081687;28;20457;-67
2022/12/06 11:14:19;;;;;;;25.80;23.90;;;;;;;16.58;68.66;100318.09;5097045;27;20071;-68
2022/12/06 11:17:04;;;;;;;34.88;32.83;;;;;;;17.55;68.39;100309.47;5087676;28;20048;-67
2022/12/06 11:19:38;;;;;;;25.67;23.95;;;;;;;18.95;67.19;100305.03;5080523;28;20047;-67
2022/12/06 11:22:43;;;;;;;39.10;36.90;;;;;;;20.66;65.85;100299.16;5084347;28;20052;-67
2022/12/06 11:25:14;;;;;;;26.40;24.77;;;;;;;21.92;62.30;100309.53;5078567;28;20044;-67
2022/12/06 11:27:48;;;;;;;33.33;31.70;;;;;;;22.19;59.62;100305.03;5087051;28;20048;-67
2022/12/06 11:30:18;;;;;;;26.42;24.92;;;;;;;22.06;58.77;100307.06;5094152;28;20048;-68
2022/12/06 11:32:50;;;;;;;26.23;24.75;;;;;;;21.85;58.60;100273.19;5084489;28;20080;-67
2022/12/06 11:35:27;;;;;;;26.67;24.98;;;;;;;22.16;59.23;100291.53;5085080;28;20051;-68
2022/12/06 11:37:59;;;;;;;36.92;34.80;;;;;;;22.81;57.12;100291.13;5083616;28;20052;-67
2022/12/06 11:40:33;;;;;;;33.83;32.03;;;;;;;22.88;55.65;100259.97;5090829;28;20048;-67
2022/12/06 11:43:04;;;;;;;27.60;25.80;;;;;;;22.37;55.53;100288.41;5105831;27;20449;-67
2022/12/06 11:45:33;;;;;;;29.05;26.77;;;;;;;21.46;55.14;100289.94;5092367;28;20051;-67
2022/12/06 11:48:25;;;;;;;26.50;24.88;;;;;;;20.56;55.97;100279.78;5092608;28;20059;-68
2022/12/06 11:50:54;;;;;;;26.85;25.13;;;;;;;20.06;56.51;100287.38;5088901;28;20059;-68
2022/12/06 11:53:32;;;;;;;26.92;25.13;;;;;;;19.49;57.19;100285.28;5080638;28;20059;-68
2022/12/06 11:56:25;;;;;;;28.90;27.02;;;;;;;18.88;58.51;100282.09;5087305;28;20386;-67
2022/12/06 11:59:06;;;;;;;27.27;25.30;;;;;;;19.06;59.24;100269.47;5078565;28;20063;-67
2022/12/06 12:01:53;;;;;;;37.50;35.22;;;;;;;19.15;58.94;100261.75;5093680;28;20044;-67